Terminal Aerodrome Forecast
Issued by NWS Charleston, WV

Home | Current Version | Previous Version | Text Only | Print | Product List | Glossary On
Versions: 1 2 3 4 5 6 7 8 9 10 11 12 13 14 15 16 17 18 19 20 21 22 23 24 25
000
FTUS41 KRLX 050553
TAFEKN
TAF
KEKN 050553Z 0506/0606 00000KT 5SM BR SCT200
      TEMPO 0506/0509 2SM BR SCT002
     FM050900 00000KT 1/2SM FG VV002
      TEMPO 0509/0513 2SM BR SCT002
     FM051300 VRB03KT 3SM BR SCT005
     FM051400 VRB03KT P6SM BKN020
     FM051500 13004KT P6SM BKN040
     FM060400 00000KT 5SM BR SCT080=

USA.gov is the U.S. government's official web portal to all federal, state and local government web resources and services.